sensor_id;sensor_type;location;lat;lon;timestamp;pressure;altitude;pressure_sealevel;temperature;humidity
22651;BME280;11492;42.646;23.400;2024-03-02T00:00:14;94499.66;;;9.12;76.31
22651;BME280;11492;42.646;23.400;2024-03-02T00:02:44;94498.47;;;9.14;75.64
22651;BME280;11492;42.646;23.400;2024-03-02T00:05:21;94518.91;;;9.16;75.91
22651;BME280;11492;42.646;23.400;2024-03-02T00:07:55;94512.69;;;9.10;76.44
22651;BME280;11492;42.646;23.400;2024-03-02T00:10:37;94498.53;;;9.00;76.50
22651;BME280;11492;42.646;23.400;2024-03-02T00:13:08;94511.59;;;8.98;76.12
22651;BME280;11492;42.646;23.400;2024-03-02T00:18:10;94509.38;;;8.96;76.88
22651;BME280;11492;42.646;23.400;2024-03-02T00:20:40;94473.78;;;8.85;76.97
22651;BME280;11492;42.646;23.400;2024-03-02T00:23:07;94490.44;;;9.03;76.84
22651;BME280;11492;42.646;23.400;2024-03-02T00:25:50;94493.22;;;9.01;76.70
22651;BME280;11492;42.646;23.400;2024-03-02T00:28:24;94502.25;;;9.12;76.83
22651;BME280;11492;42.646;23.400;2024-03-02T00:30:57;94497.25;;;9.10;75.81
22651;BME280;11492;42.646;23.400;2024-03-02T00:33:23;94495.06;;;9.07;76.83
22651;BME280;11492;42.646;23.400;2024-03-02T00:35:51;94494.41;;;9.05;76.93
22651;BME280;11492;42.646;23.400;2024-03-02T00:38:17;94476.19;;;9.00;76.35
22651;BME280;11492;42.646;23.400;2024-03-02T00:40:44;94458.00;;;8.88;76.31
22651;BME280;11492;42.646;23.400;2024-03-02T00:46:00;94486.00;;;9.11;76.46
22651;BME280;11492;42.646;23.400;2024-03-02T00:48:26;94449.78;;;8.98;75.62
22651;BME280;11492;42.646;23.400;2024-03-02T00:50:52;94473.97;;;9.18;75.03
22651;BME280;11492;42.646;23.400;2024-03-02T00:53:22;94463.28;;;9.21;75.12
22651;BME280;11492;42.646;23.400;2024-03-02T00:55:50;94441.44;;;9.11;75.51
22651;BME280;11492;42.646;23.400;2024-03-02T00:58:16;94463.72;;;9.24;75.67
22651;BME280;11492;42.646;23.400;2024-03-02T01:00:42;94464.47;;;9.19;75.51
22651;BME280;11492;42.646;23.400;2024-03-02T01:03:08;94460.28;;;9.18;75.92
22651;BME280;11492;42.646;23.400;2024-03-02T01:05:33;94463.91;;;9.23;75.04
22651;BME280;11492;42.646;23.400;2024-03-02T01:08:00;94441.34;;;9.04;75.33
22651;BME280;11492;42.646;23.400;2024-03-02T01:10:26;94427.00;;;8.96;75.29
22651;BME280;11492;42.646;23.400;2024-03-02T01:12:52;94467.28;;;9.23;74.74
22651;BME280;11492;42.646;23.400;2024-03-02T01:15:18;94459.75;;;9.22;74.59
22651;BME280;11492;42.646;23.400;2024-03-02T01:17:44;94459.41;;;9.31;74.87
22651;BME280;11492;42.646;23.400;2024-03-02T01:20:10;94463.41;;;9.34;75.11
22651;BME280;11492;42.646;23.400;2024-03-02T01:22:36;94468.22;;;9.37;74.39
22651;BME280;11492;42.646;23.400;2024-03-02T01:25:03;94443.81;;;9.33;74.87
22651;BME280;11492;42.646;23.400;2024-03-02T01:27:29;94455.78;;;9.46;74.39
22651;BME280;11492;42.646;23.400;2024-03-02T01:29:55;94452.84;;;9.49;74.88
22651;BME280;11492;42.646;23.400;2024-03-02T01:32:21;94440.56;;;9.51;75.18
22651;BME280;11492;42.646;23.400;2024-03-02T01:34:46;94449.78;;;9.60;76.32
22651;BME280;11492;42.646;23.400;2024-03-02T01:37:12;94457.75;;;9.65;75.14
22651;BME280;11492;42.646;23.400;2024-03-02T01:39:38;94428.56;;;9.58;75.04
22651;BME280;11492;42.646;23.400;2024-03-02T01:42:04;94438.13;;;9.64;74.27
22651;BME280;11492;42.646;23.400;2024-03-02T01:44:30;94445.91;;;9.70;75.32
22651;BME280;11492;42.646;23.400;2024-03-02T01:46:56;94435.03;;;9.75;76.13
22651;BME280;11492;42.646;23.400;2024-03-02T01:49:22;94440.53;;;9.72;76.27
22651;BME280;11492;42.646;23.400;2024-03-02T01:51:48;94433.19;;;9.69;75.10
22651;BME280;11492;42.646;23.400;2024-03-02T01:54:14;94435.78;;;9.69;75.50
22651;BME280;11492;42.646;23.400;2024-03-02T01:56:40;94438.16;;;9.70;75.90
22651;BME280;11492;42.646;23.400;2024-03-02T01:59:06;94422.41;;;9.59;75.76
22651;BME280;11492;42.646;23.400;2024-03-02T02:01:32;94450.69;;;9.73;75.61
22651;BME280;11492;42.646;23.400;2024-03-02T02:03:58;94434.78;;;9.70;75.60
22651;BME280;11492;42.646;23.400;2024-03-02T02:06:24;94419.44;;;9.62;75.50
22651;BME280;11492;42.646;23.400;2024-03-02T02:08:49;94438.94;;;9.71;75.30
22651;BME280;11492;42.646;23.400;2024-03-02T02:11:16;94432.81;;;9.72;75.23
22651;BME280;11492;42.646;23.400;2024-03-02T02:13:42;94432.44;;;9.75;75.09
22651;BME280;11492;42.646;23.400;2024-03-02T02:16:08;94430.00;;;9.67;75.29
22651;BME280;11492;42.646;23.400;2024-03-02T02:18:35;94440.31;;;9.67;75.24
22651;BME280;11492;42.646;23.400;2024-03-02T02:21:02;94432.56;;;9.67;75.35
22651;BME280;11492;42.646;23.400;2024-03-02T02:23:28;94430.19;;;9.66;75.88
22651;BME280;11492;42.646;23.400;2024-03-02T02:25:54;94401.69;;;9.46;75.90
22651;BME280;11492;42.646;23.400;2024-03-02T02:28:20;94425.97;;;9.58;75.58
22651;BME280;11492;42.646;23.400;2024-03-02T02:30:46;94407.44;;;9.42;75.68
22651;BME280;11492;42.646;23.400;2024-03-02T02:33:12;94408.34;;;9.35;75.79
22651;BME280;11492;42.646;23.400;2024-03-02T02:35:38;94410.72;;;9.36;76.64
22651;BME280;11492;42.646;23.400;2024-03-02T02:38:04;94425.88;;;9.45;75.77
22651;BME280;11492;42.646;23.400;2024-03-02T02:40:30;94418.75;;;9.47;76.03
22651;BME280;11492;42.646;23.400;2024-03-02T02:42:57;94421.69;;;9.45;76.47
22651;BME280;11492;42.646;23.400;2024-03-02T02:45:24;94413.28;;;9.36;77.01
22651;BME280;11492;42.646;23.400;2024-03-02T02:47:50;94428.63;;;9.44;76.90
22651;BME280;11492;42.646;23.400;2024-03-02T02:50:16;94425.63;;;9.41;76.84
22651;BME280;11492;42.646;23.400;2024-03-02T02:52:42;94433.00;;;9.44;77.14
22651;BME280;11492;42.646;23.400;2024-03-02T02:55:10;94421.69;;;9.45;76.60
22651;BME280;11492;42.646;23.400;2024-03-02T02:57:38;94425.25;;;9.44;76.51
22651;BME280;11492;42.646;23.400;2024-03-02T03:00:06;94431.03;;;9.45;76.49
22651;BME280;11492;42.646;23.400;2024-03-02T03:02:38;94408.72;;;9.32;76.52
22651;BME280;11492;42.646;23.400;2024-03-02T03:05:14;94414.13;;;9.37;76.52
22651;BME280;11492;42.646;23.400;2024-03-02T03:07:40;94422.88;;;9.42;77.06
22651;BME280;11492;42.646;23.400;2024-03-02T03:10:07;94408.91;;;9.30;77.29
22651;BME280;11492;42.646;23.400;2024-03-02T03:12:34;94410.31;;;9.33;76.77
22651;BME280;11492;42.646;23.400;2024-03-02T03:15:00;94434.22;;;9.47;76.12
22651;BME280;11492;42.646;23.400;2024-03-02T03:17:26;94431.44;;;9.49;76.62
22651;BME280;11492;42.646;23.400;2024-03-02T03:19:53;94421.50;;;9.46;76.88
22651;BME280;11492;42.646;23.400;2024-03-02T03:22:19;94421.50;;;9.46;76.86
22651;BME280;11492;42.646;23.400;2024-03-02T03:24:44;94423.13;;;9.47;76.68
22651;BME280;11492;42.646;23.400;2024-03-02T03:27:10;94431.25;;;9.50;76.18
22651;BME280;11492;42.646;23.400;2024-03-02T03:29:39;94430.63;;;9.42;76.26
22651;BME280;11492;42.646;23.400;2024-03-02T03:32:05;94413.06;;;9.31;76.08
22651;BME280;11492;42.646;23.400;2024-03-02T03:34:33;94414.28;;;9.35;75.97
22651;BME280;11492;42.646;23.400;2024-03-02T03:36:58;94437.75;;;9.46;76.61
22651;BME280;11492;42.646;23.400;2024-03-02T03:39:24;94433.59;;;9.45;76.46
22651;BME280;11492;42.646;23.400;2024-03-02T03:41:50;94405.28;;;9.25;76.16
22651;BME280;11492;42.646;23.400;2024-03-02T03:44:16;94430.03;;;9.46;76.36
22651;BME280;11492;42.646;23.400;2024-03-02T03:46:42;94429.31;;;9.52;75.84
22651;BME280;11492;42.646;23.400;2024-03-02T03:49:08;94436.22;;;9.52;76.05
22651;BME280;11492;42.646;23.400;2024-03-02T03:51:34;94431.06;;;9.52;76.12
22651;BME280;11492;42.646;23.400;2024-03-02T03:54:00;94416.31;;;9.40;76.50
22651;BME280;11492;42.646;23.400;2024-03-02T03:56:26;94411.53;;;9.37;76.24
22651;BME280;11492;42.646;23.400;2024-03-02T03:58:52;94425.91;;;9.52;75.67
22651;BME280;11492;42.646;23.400;2024-03-02T04:01:18;94414.34;;;9.42;76.06
22651;BME280;11492;42.646;23.400;2024-03-02T04:03:45;94425.75;;;9.53;76.08
22651;BME280;11492;42.646;23.400;2024-03-02T04:06:10;94426.31;;;9.49;76.07
22651;BME280;11492;42.646;23.400;2024-03-02T04:08:36;94431.66;;;9.47;76.01
22651;BME280;11492;42.646;23.400;2024-03-02T04:11:02;94420.56;;;9.47;75.67
22651;BME280;11492;42.646;23.400;2024-03-02T04:13:28;94431.81;;;9.46;76.50
22651;BME280;11492;42.646;23.400;2024-03-02T04:15:54;94426.06;;;9.44;76.71
22651;BME280;11492;42.646;23.400;2024-03-02T04:18:19;94417.91;;;9.41;76.14
22651;BME280;11492;42.646;23.400;2024-03-02T04:20:45;94425.50;;;9.48;75.66
22651;BME280;11492;42.646;23.400;2024-03-02T04:23:11;94426.31;;;9.49;76.24
22651;BME280;11492;42.646;23.400;2024-03-02T04:25:37;94426.31;;;9.49;75.98
22651;BME280;11492;42.646;23.400;2024-03-02T04:28:03;94403.56;;;9.32;76.19
22651;BME280;11492;42.646;23.400;2024-03-02T04:30:29;94415.06;;;9.36;75.54
22651;BME280;11492;42.646;23.400;2024-03-02T04:32:55;94431.03;;;9.45;75.17
22651;BME280;11492;42.646;23.400;2024-03-02T04:35:21;94442.13;;;9.46;74.81
22651;BME280;11492;42.646;23.400;2024-03-02T04:37:46;94429.78;;;9.42;75.55
22651;BME280;11492;42.646;23.400;2024-03-02T04:40:12;94416.22;;;9.27;75.82
22651;BME280;11492;42.646;23.400;2024-03-02T04:42:38;94441.09;;;9.41;75.59
22651;BME280;11492;42.646;23.400;2024-03-02T04:45:04;94431.09;;;9.31;76.05
22651;BME280;11492;42.646;23.400;2024-03-02T04:47:30;94446.00;;;9.36;76.41
22651;BME280;11492;42.646;23.400;2024-03-02T04:49:56;94438.16;;;9.23;77.43
22651;BME280;11492;42.646;23.400;2024-03-02T04:52:22;94416.09;;;9.14;77.65
22651;BME280;11492;42.646;23.400;2024-03-02T04:54:48;94436.88;;;9.33;77.28
22651;BME280;11492;42.646;23.400;2024-03-02T04:57:32;94444.03;;;9.38;77.78
22651;BME280;11492;42.646;23.400;2024-03-02T04:59:58;94442.47;;;9.37;78.08
22651;BME280;11492;42.646;23.400;2024-03-02T05:02:24;94443.97;;;9.31;78.15
22651;BME280;11492;42.646;23.400;2024-03-02T05:04:50;94443.59;;;9.34;78.10
22651;BME280;11492;42.646;23.400;2024-03-02T05:07:16;94441.03;;;9.34;78.12
22651;BME280;11492;42.646;23.400;2024-03-02T05:09:42;94453.38;;;9.39;77.39
22651;BME280;11492;42.646;23.400;2024-03-02T05:12:08;94431.59;;;9.20;77.60
22651;BME280;11492;42.646;23.400;2024-03-02T05:14:55;94462.69;;;9.40;77.77
22651;BME280;11492;42.646;23.400;2024-03-02T05:17:21;94452.38;;;9.40;78.40
22651;BME280;11492;42.646;23.400;2024-03-02T05:19:47;94431.22;;;9.23;78.27
22651;BME280;11492;42.646;23.400;2024-03-02T05:22:13;94457.91;;;9.37;78.03
22651;BME280;11492;42.646;23.400;2024-03-02T05:24:39;94438.16;;;9.23;78.78
22651;BME280;11492;42.646;23.400;2024-03-02T05:27:05;94462.47;;;9.41;78.15
22651;BME280;11492;42.646;23.400;2024-03-02T05:29:32;94463.91;;;9.44;78.64
22651;BME280;11492;42.646;23.400;2024-03-02T05:31:58;94440.97;;;9.28;80.16
22651;BME280;11492;42.646;23.400;2024-03-02T05:34:24;94473.03;;;9.46;79.93
22651;BME280;11492;42.646;23.400;2024-03-02T05:36:50;94472.25;;;9.45;80.85
22651;BME280;11492;42.646;23.400;2024-03-02T05:39:16;94472.88;;;9.47;80.92
22651;BME280;11492;42.646;23.400;2024-03-02T05:41:41;94477.59;;;9.44;81.20
22651;BME280;11492;42.646;23.400;2024-03-02T05:44:07;94474.41;;;9.42;82.26
22651;BME280;11492;42.646;23.400;2024-03-02T05:46:33;94483.28;;;9.40;81.55
22651;BME280;11492;42.646;23.400;2024-03-02T05:48:59;94445.75;;;9.10;81.55
22651;BME280;11492;42.646;23.400;2024-03-02T05:51:26;94481.00;;;9.30;82.46
22651;BME280;11492;42.646;23.400;2024-03-02T05:53:51;94468.81;;;9.18;82.38
22651;BME280;11492;42.646;23.400;2024-03-02T05:56:17;94491.50;;;9.29;81.92
22651;BME280;11492;42.646;23.400;2024-03-02T05:58:42;94473.53;;;9.15;82.07
22651;BME280;11492;42.646;23.400;2024-03-02T06:01:34;94495.44;;;9.25;82.26
22651;BME280;11492;42.646;23.400;2024-03-02T06:03:59;94500.78;;;9.23;82.20
22651;BME280;11492;42.646;23.400;2024-03-02T06:06:25;94493.84;;;9.24;83.03
22651;BME280;11492;42.646;23.400;2024-03-02T06:08:51;94485.06;;;9.19;82.62
22651;BME280;11492;42.646;23.400;2024-03-02T06:11:19;94500.97;;;9.22;82.75
22651;BME280;11492;42.646;23.400;2024-03-02T06:13:44;94472.31;;;9.11;82.82
22651;BME280;11492;42.646;23.400;2024-03-02T06:16:10;94498.19;;;9.23;82.71
22651;BME280;11492;42.646;23.400;2024-03-02T06:18:36;94493.84;;;9.24;83.16
22651;BME280;11492;42.646;23.400;2024-03-02T06:21:02;94495.81;;;9.22;83.54
22651;BME280;11492;42.646;23.400;2024-03-02T06:23:28;94476.84;;;9.09;83.05
22651;BME280;11492;42.646;23.400;2024-03-02T06:25:54;94490.81;;;9.20;82.66
22651;BME280;11492;42.646;23.400;2024-03-02T06:28:20;94485.50;;;9.22;82.69
22651;BME280;11492;42.646;23.400;2024-03-02T06:30:46;94474.72;;;9.12;81.84
22651;BME280;11492;42.646;23.400;2024-03-02T06:33:11;94505.56;;;9.26;83.19
22651;BME280;11492;42.646;23.400;2024-03-02T06:35:37;94498.63;;;9.27;82.79
22651;BME280;11492;42.646;23.400;2024-03-02T06:38:04;94502.84;;;9.34;81.78
22651;BME280;11492;42.646;23.400;2024-03-02T06:40:30;94505.88;;;9.38;82.39
22651;BME280;11492;42.646;23.400;2024-03-02T06:42:56;94505.69;;;9.39;82.55
22651;BME280;11492;42.646;23.400;2024-03-02T06:45:21;94507.72;;;9.44;82.10
22651;BME280;11492;42.646;23.400;2024-03-02T06:47:47;94509.50;;;9.43;81.69
22651;BME280;11492;42.646;23.400;2024-03-02T06:50:13;94513.84;;;9.43;82.07
22651;BME280;11492;42.646;23.400;2024-03-02T06:52:38;94515.78;;;9.41;81.95
22651;BME280;11492;42.646;23.400;2024-03-02T06:55:04;94517.75;;;9.39;81.75
22651;BME280;11492;42.646;23.400;2024-03-02T06:57:30;94508.84;;;9.41;82.80
22651;BME280;11492;42.646;23.400;2024-03-02T06:59:56;94512.22;;;9.42;82.67
22651;BME280;11492;42.646;23.400;2024-03-02T07:02:27;94507.06;;;9.42;82.30
22651;BME280;11492;42.646;23.400;2024-03-02T07:04:56;94509.09;;;9.46;82.47
22651;BME280;11492;42.646;23.400;2024-03-02T07:07:21;94521.44;;;9.50;80.99
22651;BME280;11492;42.646;23.400;2024-03-02T07:09:47;94496.78;;;9.42;82.24
22651;BME280;11492;42.646;23.400;2024-03-02T07:12:13;94525.34;;;9.46;81.06
22651;BME280;11492;42.646;23.400;2024-03-02T07:14:39;94520.03;;;9.48;81.84
22651;BME280;11492;42.646;23.400;2024-03-02T07:17:23;94501.72;;;9.37;81.78
22651;BME280;11492;42.646;23.400;2024-03-02T07:19:48;94521.81;;;9.47;81.10
22651;BME280;11492;42.646;23.400;2024-03-02T07:22:14;94520.84;;;9.48;80.80
22651;BME280;11492;42.646;23.400;2024-03-02T07:24:42;94526.00;;;9.48;81.20
22651;BME280;11492;42.646;23.400;2024-03-02T07:27:09;94520.84;;;9.48;82.68
22651;BME280;11492;42.646;23.400;2024-03-02T07:29:35;94510.22;;;9.37;82.18
22651;BME280;11492;42.646;23.400;2024-03-02T07:32:01;94501.47;;;9.32;81.97
22651;BME280;11492;42.646;23.400;2024-03-02T07:34:27;94531.94;;;9.49;82.06
22651;BME280;11492;42.646;23.400;2024-03-02T07:36:53;94507.81;;;9.36;81.79
22651;BME280;11492;42.646;23.400;2024-03-02T07:39:19;94528.03;;;9.53;82.66
22651;BME280;11492;42.646;23.400;2024-03-02T07:41:45;94539.72;;;9.55;82.96
22651;BME280;11492;42.646;23.400;2024-03-02T07:44:11;94529.41;;;9.55;81.87
22651;BME280;11492;42.646;23.400;2024-03-02T07:46:43;94515.00;;;9.40;81.60
22651;BME280;11492;42.646;23.400;2024-03-02T07:49:10;94533.19;;;9.53;81.62
22651;BME280;11492;42.646;23.400;2024-03-02T07:51:35;94534.13;;;9.52;81.87
22651;BME280;11492;42.646;23.400;2024-03-02T07:54:04;94524.16;;;9.43;81.90
22651;BME280;11492;42.646;23.400;2024-03-02T07:56:29;94538.31;;;9.53;82.15
22651;BME280;11492;42.646;23.400;2024-03-02T07:58:55;94539.97;;;9.60;82.20
22651;BME280;11492;42.646;23.400;2024-03-02T08:01:23;94536.41;;;9.61;81.69
22651;BME280;11492;42.646;23.400;2024-03-02T08:03:48;94546.41;;;9.70;81.64
22651;BME280;11492;42.646;23.400;2024-03-02T08:06:16;94518.00;;;9.64;82.00
22651;BME280;11492;42.646;23.400;2024-03-02T08:08:43;94545.25;;;9.73;81.99
22651;BME280;11492;42.646;23.400;2024-03-02T08:11:09;94551.38;;;9.72;80.80
22651;BME280;11492;42.646;23.400;2024-03-02T08:13:35;94553.41;;;9.76;80.97
22651;BME280;11492;42.646;23.400;2024-03-02T08:16:00;94552.06;;;9.80;80.90
22651;BME280;11492;42.646;23.400;2024-03-02T08:18:28;94550.63;;;9.78;80.51
22651;BME280;11492;42.646;23.400;2024-03-02T08:20:54;94552.94;;;9.87;80.77
22651;BME280;11492;42.646;23.400;2024-03-02T08:23:20;94552.78;;;9.89;80.43
22651;BME280;11492;42.646;23.400;2024-03-02T08:25:45;94550.00;;;9.90;80.68
22651;BME280;11492;42.646;23.400;2024-03-02T08:28:12;94554.16;;;9.91;80.86
22651;BME280;11492;42.646;23.400;2024-03-02T08:30:38;94547.03;;;9.93;80.76
22651;BME280;11492;42.646;23.400;2024-03-02T08:33:04;94556.38;;;9.94;80.20
22651;BME280;11492;42.646;23.400;2024-03-02T08:35:31;94531.50;;;9.87;79.96
22651;BME280;11492;42.646;23.400;2024-03-02T08:38:02;94539.72;;;9.96;80.17
22651;BME280;11492;42.646;23.400;2024-03-02T08:40:28;94558.25;;;10.06;80.33
22651;BME280;11492;42.646;23.400;2024-03-02T08:42:54;94530.66;;;10.00;80.98
22651;BME280;11492;42.646;23.400;2024-03-02T08:45:19;94552.94;;;10.14;80.16
22651;BME280;11492;42.646;23.400;2024-03-02T08:47:46;94514.34;;;9.94;79.15
22651;BME280;11492;42.646;23.400;2024-03-02T08:50:12;94557.78;;;10.23;79.25
22651;BME280;11492;42.646;23.400;2024-03-02T08:52:38;94511.84;;;10.06;79.15
22651;BME280;11492;42.646;23.400;2024-03-02T08:55:04;94543.00;;;10.38;79.06
22651;BME280;11492;42.646;23.400;2024-03-02T08:57:30;94520.91;;;10.29;79.03
22651;BME280;11492;42.646;23.400;2024-03-02T08:59:56;94550.84;;;10.51;78.00
22651;BME280;11492;42.646;23.400;2024-03-02T09:02:22;94544.69;;;10.52;77.61
22651;BME280;11492;42.646;23.400;2024-03-02T09:04:49;94553.13;;;10.67;78.25
22651;BME280;11492;42.646;23.400;2024-03-02T09:07:14;94556.34;;;10.75;77.90
22651;BME280;11492;42.646;23.400;2024-03-02T09:09:40;94537.56;;;10.87;77.57
22651;BME280;11492;42.646;23.400;2024-03-02T09:12:07;94554.50;;;11.02;77.44
22651;BME280;11492;42.646;23.400;2024-03-02T09:14:32;94514.09;;;10.89;77.59
22651;BME280;11492;42.646;23.400;2024-03-02T09:16:58;94552.78;;;11.22;75.67
22651;BME280;11492;42.646;23.400;2024-03-02T09:19:24;94557.00;;;11.29;75.58
22651;BME280;11492;42.646;23.400;2024-03-02T09:21:49;94557.25;;;11.41;75.34
22651;BME280;11492;42.646;23.400;2024-03-02T09:24:15;94559.84;;;11.41;73.64
22651;BME280;11492;42.646;23.400;2024-03-02T09:26:41;94552.81;;;11.28;73.39
22651;BME280;11492;42.646;23.400;2024-03-02T09:29:07;94548.03;;;11.25;73.04
22651;BME280;11492;42.646;23.400;2024-03-02T09:31:32;94564.97;;;11.34;73.93
22651;BME280;11492;42.646;23.400;2024-03-02T09:33:58;94538.91;;;11.23;73.83
22651;BME280;11492;42.646;23.400;2024-03-02T09:36:24;94551.28;;;11.40;73.91
22651;BME280;11492;42.646;23.400;2024-03-02T09:38:49;94553.31;;;11.45;73.30
22651;BME280;11492;42.646;23.400;2024-03-02T09:41:16;94572.34;;;11.44;72.52
22651;BME280;11492;42.646;23.400;2024-03-02T09:43:41;94530.91;;;11.18;72.58
22651;BME280;11492;42.646;23.400;2024-03-02T09:46:10;94559.00;;;11.34;72.61
22651;BME280;11492;42.646;23.400;2024-03-02T09:48:37;94564.31;;;11.20;72.76
22651;BME280;11492;42.646;23.400;2024-03-02T09:51:04;94567.09;;;11.18;72.82
22651;BME280;11492;42.646;23.400;2024-03-02T09:53:32;94563.88;;;11.16;73.57
22651;BME280;11492;42.646;23.400;2024-03-02T09:56:01;94561.50;;;11.15;73.27
22651;BME280;11492;42.646;23.400;2024-03-02T09:58:26;94564.88;;;11.15;73.40
22651;BME280;11492;42.646;23.400;2024-03-02T10:00:52;94572.25;;;11.18;74.21
22651;BME280;11492;42.646;23.400;2024-03-02T10:03:22;94564.31;;;11.26;74.78
22651;BME280;11492;42.646;23.400;2024-03-02T10:05:49;94543.84;;;11.18;74.51
22651;BME280;11492;42.646;23.400;2024-03-02T10:08:15;94556.41;;;11.34;75.03
22651;BME280;11492;42.646;23.400;2024-03-02T10:10:41;94553.69;;;11.42;75.31
22651;BME280;11492;42.646;23.400;2024-03-02T10:13:09;94558.47;;;11.45;75.29
22651;BME280;11492;42.646;23.400;2024-03-02T10:15:37;94558.47;;;11.51;75.52
22651;BME280;11492;42.646;23.400;2024-03-02T10:18:04;94563.28;;;11.60;75.59
22651;BME280;11492;42.646;23.400;2024-03-02T10:20:29;94559.69;;;11.61;75.71
22651;BME280;11492;42.646;23.400;2024-03-02T10:23:09;94560.69;;;11.67;75.38
22651;BME280;11492;42.646;23.400;2024-03-02T10:25:35;94550.94;;;11.62;75.62
22651;BME280;11492;42.646;23.400;2024-03-02T10:28:01;94549.94;;;11.63;76.09
22651;BME280;11492;42.646;23.400;2024-03-02T10:30:27;94558.72;;;11.69;76.56
22651;BME280;11492;42.646;23.400;2024-03-02T10:32:56;94560.31;;;11.70;75.46
22651;BME280;11492;42.646;23.400;2024-03-02T10:35:22;94544.59;;;11.65;74.85
22651;BME280;11492;42.646;23.400;2024-03-02T10:37:49;94553.94;;;11.72;75.31
22651;BME280;11492;42.646;23.400;2024-03-02T10:40:15;94548.16;;;11.64;75.07
22651;BME280;11492;42.646;23.400;2024-03-02T10:42:42;94558.50;;;11.64;73.69
22651;BME280;11492;42.646;23.400;2024-03-02T10:45:09;94555.31;;;11.55;74.72
22651;BME280;11492;42.646;23.400;2024-03-02T10:47:38;94552.53;;;11.57;75.16
22651;BME280;11492;42.646;23.400;2024-03-02T10:50:04;94549.53;;;11.53;75.84
22651;BME280;11492;42.646;23.400;2024-03-02T10:52:37;94551.91;;;11.48;76.22
22651;BME280;11492;42.646;23.400;2024-03-02T10:55:03;94544.56;;;11.52;76.05
22651;BME280;11492;42.646;23.400;2024-03-02T10:57:57;94534.63;;;11.49;75.65
22651;BME280;11492;42.646;23.400;2024-03-02T11:00:33;94532.16;;;11.35;75.72
22651;BME280;11492;42.646;23.400;2024-03-02T11:03:06;94544.47;;;11.33;76.54
22651;BME280;11492;42.646;23.400;2024-03-02T11:05:34;94508.59;;;11.04;76.26
22651;BME280;11492;42.646;23.400;2024-03-02T11:08:13;94544.25;;;11.28;76.96
22651;BME280;11492;42.646;23.400;2024-03-02T11:10:50;94542.06;;;11.19;77.71
22651;BME280;11492;42.646;23.400;2024-03-02T11:13:22;94536.66;;;11.14;76.81
22651;BME280;11492;42.646;23.400;2024-03-02T11:15:52;94517.69;;;10.88;76.42
22651;BME280;11492;42.646;23.400;2024-03-02T11:18:20;94537.97;;;10.97;76.93
22651;BME280;11492;42.646;23.400;2024-03-02T11:20:46;94542.38;;;11.03;77.42
22651;BME280;11492;42.646;23.400;2024-03-02T11:23:12;94531.63;;;10.99;77.82
22651;BME280;11492;42.646;23.400;2024-03-02T11:25:38;94501.13;;;10.76;77.68
22651;BME280;11492;42.646;23.400;2024-03-02T11:28:06;94541.38;;;10.97;77.89
22651;BME280;11492;42.646;23.400;2024-03-02T11:32:58;94527.69;;;11.03;82.39
22651;BME280;11492;42.646;23.400;2024-03-02T11:35:25;94536.88;;;11.19;82.52
22651;BME280;11492;42.646;23.400;2024-03-02T11:37:51;94526.97;;;11.28;78.82
22651;BME280;11492;42.646;23.400;2024-03-02T11:40:25;94529.41;;;11.36;78.47
22651;BME280;11492;42.646;23.400;2024-03-02T11:42:51;94540.47;;;11.24;77.83
22651;BME280;11492;42.646;23.400;2024-03-02T11:45:25;94534.69;;;11.16;77.43
22651;BME280;11492;42.646;23.400;2024-03-02T11:47:53;94531.88;;;11.11;77.64
22651;BME280;11492;42.646;23.400;2024-03-02T11:50:46;94535.22;;;11.05;78.21
22651;BME280;11492;42.646;23.400;2024-03-02T11:53:12;94541.59;;;11.02;78.42
22651;BME280;11492;42.646;23.400;2024-03-02T11:55:39;94534.59;;;10.96;77.91
22651;BME280;11492;42.646;23.400;2024-03-02T11:58:15;94531.41;;;10.88;77.37
22651;BME280;11492;42.646;23.400;2024-03-02T12:00:46;94530.38;;;10.83;78.11
22651;BME280;11492;42.646;23.400;2024-03-02T12:03:13;94513.81;;;10.71;79.15
22651;BME280;11492;42.646;23.400;2024-03-02T12:05:40;94495.69;;;10.58;79.24
22651;BME280;11492;42.646;23.400;2024-03-02T12:08:06;94521.16;;;10.68;77.77
22651;BME280;11492;42.646;23.400;2024-03-02T12:10:34;94515.81;;;10.69;77.77
22651;BME280;11492;42.646;23.400;2024-03-02T12:13:01;94519.97;;;10.70;77.00
22651;BME280;11492;42.646;23.400;2024-03-02T12:15:29;94526.38;;;10.80;77.82
22651;BME280;11492;42.646;23.400;2024-03-02T12:17:59;94516.03;;;10.74;78.55
22651;BME280;11492;42.646;23.400;2024-03-02T12:20:29;94521.19;;;10.74;77.51
22651;BME280;11492;42.646;23.400;2024-03-02T12:22:57;94538.16;;;10.89;77.75
22651;BME280;11492;42.646;23.400;2024-03-02T12:25:24;94526.63;;;10.92;78.14
22651;BME280;11492;42.646;23.400;2024-03-02T12:27:57;94537.78;;;10.98;77.15
22651;BME280;11492;42.646;23.400;2024-03-02T12:30:23;94534.00;;;10.95;77.09
22651;BME280;11492;42.646;23.400;2024-03-02T12:32:49;94534.81;;;11.01;77.28
22651;BME280;11492;42.646;23.400;2024-03-02T12:35:16;94529.28;;;11.04;77.00
22651;BME280;11492;42.646;23.400;2024-03-02T12:40:11;94534.44;;;11.04;75.56
22651;BME280;11492;42.646;23.400;2024-03-02T12:42:38;94519.28;;;10.89;75.88
22651;BME280;11492;42.646;23.400;2024-03-02T12:45:05;94533.06;;;11.08;78.69
22651;BME280;11492;42.646;23.400;2024-03-02T12:47:32;94522.75;;;11.21;78.82
22651;BME280;11492;42.646;23.400;2024-03-02T12:49:59;94536.13;;;11.31;78.77
22651;BME280;11492;42.646;23.400;2024-03-02T12:52:24;94536.94;;;11.38;76.45
22651;BME280;11492;42.646;23.400;2024-03-02T12:54:50;94533.94;;;11.34;75.24
22651;BME280;11492;42.646;23.400;2024-03-02T12:57:20;94539.91;;;11.35;75.89
22651;BME280;11492;42.646;23.400;2024-03-02T12:59:47;94540.91;;;11.34;75.07
22651;BME280;11492;42.646;23.400;2024-03-02T13:02:19;94545.28;;;11.33;74.53
22651;BME280;11492;42.646;23.400;2024-03-02T13:04:52;94541.34;;;11.37;74.36
22651;BME280;11492;42.646;23.400;2024-03-02T13:07:19;94538.75;;;11.37;74.67